Time;durP1;ratioP1;P1;durP2;ratioP2;P2;SDS_P1;SDS_P2;PMS_P1;PMS_P2;Temp;Humidity;BMP_temperature;BMP_pressure;BME280_temperature;BME280_humidity;BME280_pressure;Samples;Min_cycle;Max_cycle;Signal;HPM_P1;HPM_P2
2023/01/11 00:00:14;;;;;;;1.07;0.60;;;9.50;99.90;;;;;;5095298;28;20194;-73
2023/01/11 00:02:40;;;;;;;1.20;0.80;;;9.60;99.90;;;;;;5093955;28;20165;-73
2023/01/11 00:05:06;;;;;;;1.00;0.60;;;9.60;99.90;;;;;;5082550;28;20174;-73
2023/01/11 00:07:32;;;;;;;1.70;0.70;;;9.50;99.90;;;;;;5090518;28;20277;-73
2023/01/11 00:09:57;;;;;;;1.00;0.50;;;9.50;99.90;;;;;;5074730;28;20922;-73
2023/01/11 00:12:23;;;;;;;1.50;0.70;;;9.50;99.90;;;;;;5074752;28;20176;-73
2023/01/11 00:14:48;;;;;;;1.10;0.60;;;9.50;99.90;;;;;;5074437;28;20196;-73
2023/01/11 00:17:14;;;;;;;3.13;0.60;;;9.60;99.90;;;;;;5085892;28;20195;-73
2023/01/11 00:19:39;;;;;;;1.20;0.60;;;9.60;99.90;;;;;;5094399;28;20250;-73
2023/01/11 00:22:05;;;;;;;1.00;0.50;;;9.60;99.90;;;;;;5084434;28;20175;-73
2023/01/11 00:24:30;;;;;;;1.10;0.63;;;9.60;99.90;;;;;;5079966;28;20198;-73
2023/01/11 00:26:56;;;;;;;1.17;0.70;;;9.60;99.90;;;;;;5094602;28;20181;-73
2023/01/11 00:29:21;;;;;;;1.20;0.60;;;9.60;99.90;;;;;;5094704;28;20538;-73
2023/01/11 00:31:47;;;;;;;1.10;0.70;;;9.70;99.90;;;;;;5102333;28;20210;-73
2023/01/11 00:34:12;;;;;;;1.20;0.60;;;9.70;99.90;;;;;;5111413;28;20157;-73
2023/01/11 00:36:38;;;;;;;1.30;0.60;;;9.70;99.90;;;;;;5093018;28;20189;-73
2023/01/11 00:39:03;;;;;;;1.00;0.60;;;9.70;99.90;;;;;;5094365;28;20201;-73
2023/01/11 00:49:42;;;;;;;1.10;0.60;;;9.80;99.90;;;;;;5074034;28;20396;-73
2023/01/11 00:52:08;;;;;;;1.50;0.57;;;9.80;99.90;;;;;;5074042;28;21013;-73
2023/01/11 00:54:38;;;;;;;1.10;0.60;;;9.80;99.90;;;;;;5091698;28;20451;-73
2023/01/11 00:57:06;;;;;;;1.00;0.60;;;9.80;99.90;;;;;;5094057;28;20217;-73
2023/01/11 00:59:35;;;;;;;1.00;0.60;;;9.90;99.90;;;;;;5093603;28;20824;-73
2023/01/11 01:02:01;;;;;;;1.00;0.50;;;9.80;99.90;;;;;;5094066;28;20456;-73
2023/01/11 01:04:26;;;;;;;1.10;0.50;;;9.80;99.90;;;;;;5092500;28;20411;-73
2023/01/11 01:06:52;;;;;;;1.00;0.60;;;9.90;99.90;;;;;;5093902;28;21055;-73
2023/01/11 01:09:17;;;;;;;1.00;0.50;;;9.90;99.90;;;;;;5093888;28;20177;-73
2023/01/11 01:11:43;;;;;;;1.10;0.60;;;9.90;99.90;;;;;;5075050;28;20182;-73
2023/01/11 01:14:29;;;;;;;1.00;0.60;;;10.00;99.90;;;;;;5073576;28;20625;-73
2023/01/11 01:17:00;;;;;;;1.20;0.60;;;10.00;99.90;;;;;;5073533;28;20319;-73
2023/01/11 01:19:26;;;;;;;1.23;0.60;;;10.10;99.90;;;;;;5106086;28;21010;-73
2023/01/11 01:21:54;;;;;;;1.10;0.60;;;10.10;99.90;;;;;;5078702;28;20942;-73
2023/01/11 01:24:19;;;;;;;1.00;0.50;;;10.10;99.90;;;;;;5093397;28;20928;-73
2023/01/11 01:26:45;;;;;;;1.10;0.60;;;10.20;99.90;;;;;;5092008;28;20447;-73
2023/01/11 01:29:12;;;;;;;1.17;0.60;;;10.20;99.90;;;;;;5074182;28;20202;-73
2023/01/11 01:31:37;;;;;;;1.10;0.60;;;10.20;99.90;;;;;;5093625;28;20162;-73
2023/01/11 01:34:03;;;;;;;1.10;0.73;;;10.20;99.90;;;;;;5093488;28;20400;-73
2023/01/11 01:36:28;;;;;;;1.00;0.50;;;10.30;99.90;;;;;;5093146;28;20186;-73
2023/01/11 01:38:54;;;;;;;1.10;0.60;;;10.20;99.90;;;;;;5093245;28;20239;-73
2023/01/11 01:41:20;;;;;;;1.10;0.60;;;10.30;99.90;;;;;;5080739;28;20166;-73
2023/01/11 01:43:53;;;;;;;2.40;0.53;;;10.30;99.90;;;;;;5087744;28;20159;-73
2023/01/11 01:46:21;;;;;;;1.20;0.60;;;10.40;99.90;;;;;;5072098;28;20190;-73
2023/01/11 01:48:51;;;;;;;1.10;0.70;;;10.40;99.90;;;;;;5081463;28;20408;-73
2023/01/11 01:51:29;;;;;;;1.00;0.60;;;10.50;99.90;;;;;;5084767;28;20804;-73
2023/01/11 01:53:58;;;;;;;1.20;0.70;;;10.50;99.90;;;;;;5073834;28;20416;-73
2023/01/11 01:56:32;;;;;;;1.00;0.60;;;10.50;99.90;;;;;;5085001;28;20427;-73
2023/01/11 01:59:03;;;;;;;1.10;0.60;;;10.60;99.90;;;;;;5092121;28;20920;-73
2023/01/11 02:01:47;;;;;;;4.13;0.70;;;10.70;99.90;;;;;;5093037;28;20789;-73
2023/01/11 02:04:20;;;;;;;1.50;0.70;;;10.70;99.90;;;;;;5088551;28;20423;-73
2023/01/11 02:06:46;;;;;;;1.00;0.50;;;10.70;99.90;;;;;;5072626;28;20427;-73
2023/01/11 02:09:39;;;;;;;1.00;0.50;;;10.70;99.90;;;;;;5072492;28;20769;-73
2023/01/11 02:12:06;;;;;;;1.00;0.50;;;10.70;99.90;;;;;;5064292;28;20428;-73
2023/01/11 02:14:34;;;;;;;1.00;0.60;;;10.80;99.90;;;;;;5070939;28;20780;-73
2023/01/11 02:17:00;;;;;;;1.10;0.53;;;10.80;99.90;;;;;;5079567;28;20447;-73
2023/01/11 02:19:28;;;;;;;1.10;0.57;;;10.90;99.90;;;;;;5091933;28;20808;-73
2023/01/11 02:22:27;;;;;;;1.10;0.60;;;10.90;99.90;;;;;;5085496;28;20166;-73
2023/01/11 02:25:11;;;;;;;1.70;0.90;;;11.00;99.90;;;;;;5072102;28;20411;-73
2023/01/11 02:28:14;;;;;;;1.07;0.60;;;11.00;99.90;;;;;;5072226;28;20491;-73
2023/01/11 02:31:17;;;;;;;1.07;0.60;;;11.00;99.90;;;;;;5076336;28;20411;-73
2023/01/11 02:33:46;;;;;;;1.20;0.70;;;11.00;99.90;;;;;;5091328;28;20414;-73
2023/01/11 02:36:26;;;;;;;1.20;0.67;;;10.90;99.90;;;;;;5091964;28;20420;-73
2023/01/11 02:39:04;;;;;;;1.30;0.60;;;10.90;99.90;;;;;;5092166;28;20508;-73
2023/01/11 02:45:26;;;;;;;5.40;0.70;;;10.90;99.90;;;;;;5057836;28;20426;-73
2023/01/11 02:48:02;;;;;;;1.10;0.70;;;11.00;99.90;;;;;;5087233;28;20956;-73
2023/01/11 02:50:37;;;;;;;1.00;0.50;;;11.00;99.90;;;;;;5106387;28;20421;-73
2023/01/11 02:53:29;;;;;;;1.10;0.60;;;11.00;99.90;;;;;;5091882;28;20450;-73
2023/01/11 02:56:00;;;;;;;1.00;0.60;;;10.90;99.90;;;;;;5090316;28;20485;-73
2023/01/11 02:58:29;;;;;;;1.00;0.50;;;10.90;99.90;;;;;;5091554;28;20409;-73
2023/01/11 03:00:57;;;;;;;1.40;0.70;;;10.90;99.90;;;;;;5082608;28;20456;-73
2023/01/11 03:03:26;;;;;;;1.00;0.50;;;11.00;99.90;;;;;;5072147;28;20408;-73
2023/01/11 03:05:56;;;;;;;1.10;0.50;;;10.90;99.90;;;;;;5071585;28;20412;-73
2023/01/11 03:08:37;;;;;;;1.97;0.60;;;10.90;99.90;;;;;;5070583;28;20412;-73
2023/01/11 03:14:45;;;;;;;1.07;0.57;;;11.00;99.90;;;;;;5087175;28;20421;-73
2023/01/11 03:17:26;;;;;;;1.00;0.50;;;11.10;99.90;;;;;;5029303;28;20445;-73
2023/01/11 03:19:55;;;;;;;1.00;0.50;;;11.10;99.90;;;;;;5012206;28;20536;-73
2023/01/11 03:22:27;;;;;;;1.10;0.60;;;11.10;99.90;;;;;;5061749;28;20502;-73
2023/01/11 03:25:11;;;;;;;1.00;0.50;;;11.20;99.90;;;;;;5081440;28;21000;-73
2023/01/11 03:27:56;;;;;;;1.00;0.50;;;11.30;99.90;;;;;;5071531;28;20585;-73
2023/01/11 03:30:33;;;;;;;1.23;0.50;;;11.30;99.90;;;;;;5071747;28;20409;-73
2023/01/11 03:33:12;;;;;;;1.40;0.60;;;11.30;99.90;;;;;;5100858;28;20416;-73
2023/01/11 03:35:40;;;;;;;1.00;0.50;;;11.40;99.90;;;;;;5071391;28;20766;-73
2023/01/11 03:38:15;;;;;;;2.60;0.60;;;11.50;99.90;;;;;;5071334;28;20482;-73
2023/01/11 03:40:48;;;;;;;1.10;0.60;;;11.60;99.90;;;;;;5071478;28;20520;-73
2023/01/11 03:43:17;;;;;;;1.00;0.50;;;11.60;99.90;;;;;;5081633;28;20498;-73
2023/01/11 03:45:55;;;;;;;1.00;0.50;;;11.70;99.90;;;;;;5071309;28;20423;-73
2023/01/11 03:48:35;;;;;;;1.00;0.50;;;11.70;99.90;;;;;;5070155;28;20474;-72
2023/01/11 03:51:04;;;;;;;1.00;0.50;;;11.70;99.90;;;;;;5071456;28;20414;-73
2023/01/11 03:53:34;;;;;;;1.97;0.77;;;11.70;99.90;;;;;;5070160;28;20408;-73
2023/01/11 03:56:00;;;;;;;1.37;0.60;;;11.70;99.90;;;;;;5071288;28;20411;-73
2023/01/11 03:58:26;;;;;;;1.00;0.50;;;11.60;99.90;;;;;;5075893;28;20426;-73
2023/01/11 04:00:54;;;;;;;7.93;0.70;;;11.60;99.90;;;;;;5102743;28;20524;-73
2023/01/11 04:03:20;;;;;;;1.00;0.50;;;11.60;99.90;;;;;;5090742;28;20415;-73
2023/01/11 04:05:51;;;;;;;1.00;0.50;;;11.70;99.90;;;;;;5089910;28;20793;-73
2023/01/11 04:08:16;;;;;;;1.00;0.50;;;11.60;99.90;;;;;;5091282;28;20584;-73
2023/01/11 04:10:42;;;;;;;1.00;0.50;;;11.40;99.90;;;;;;5095126;28;20491;-73
2023/01/11 04:13:07;;;;;;;1.00;0.50;;;11.40;99.90;;;;;;5082842;28;20228;-73
2023/01/11 04:15:34;;;;;;;1.10;0.50;;;11.40;99.90;;;;;;5073195;28;20209;-73
2023/01/11 04:18:05;;;;;;;1.00;0.50;;;11.30;99.90;;;;;;5074681;28;20671;-73
2023/01/11 04:20:36;;;;;;;1.00;0.50;;;11.30;99.90;;;;;;5074620;28;20487;-74
2023/01/11 04:23:02;;;;;;;1.00;0.50;;;11.30;99.90;;;;;;5088420;28;20411;-73
2023/01/11 04:25:28;;;;;;;1.03;0.70;;;11.20;99.90;;;;;;5091799;28;20498;-73
2023/01/11 04:27:53;;;;;;;1.00;0.50;;;11.20;99.90;;;;;;5074552;28;20523;-73
2023/01/11 04:30:19;;;;;;;1.00;0.60;;;11.20;99.90;;;;;;5074498;28;20571;-73
2023/01/11 04:32:45;;;;;;;1.10;0.60;;;11.10;99.90;;;;;;5074417;28;20205;-74
2023/01/11 04:35:10;;;;;;;1.00;0.50;;;11.20;99.90;;;;;;5074100;28;20258;-73
2023/01/11 04:37:36;;;;;;;1.00;0.50;;;11.20;99.90;;;;;;5074169;28;20201;-74
2023/01/11 04:40:01;;;;;;;2.20;0.67;;;11.10;99.90;;;;;;5074300;28;20182;-73
2023/01/11 04:42:27;;;;;;;1.00;0.60;;;11.20;99.90;;;;;;5074285;28;20527;-73
2023/01/11 04:44:52;;;;;;;1.10;0.60;;;11.20;99.90;;;;;;5082834;28;20173;-73
2023/01/11 04:47:21;;;;;;;1.00;0.50;;;11.20;99.90;;;;;;5094430;28;20207;-74
2023/01/11 04:49:47;;;;;;;1.03;0.60;;;11.20;99.90;;;;;;5094420;28;20170;-73
2023/01/11 04:52:14;;;;;;;1.10;0.60;;;11.20;99.90;;;;;;5094300;28;20415;-73
2023/01/11 04:54:39;;;;;;;1.00;0.60;;;11.20;99.90;;;;;;5093947;28;20173;-73
2023/01/11 04:57:06;;;;;;;1.33;0.60;;;11.30;99.90;;;;;;5093810;28;20948;-73
2023/01/11 04:59:32;;;;;;;1.10;0.60;;;11.30;99.90;;;;;;5094161;28;20666;-73
2023/01/11 05:01:58;;;;;;;1.00;0.50;;;11.30;99.90;;;;;;5094221;28;20415;-74
2023/01/11 05:04:23;;;;;;;1.10;0.60;;;11.20;99.90;;;;;;5093809;28;20170;-73
2023/01/11 05:06:49;;;;;;;1.00;0.50;;;11.20;99.90;;;;;;5092766;28;20651;-74
2023/01/11 05:09:17;;;;;;;1.50;0.80;;;11.20;99.90;;;;;;5081587;28;20178;-74
2023/01/11 05:11:43;;;;;;;1.00;0.50;;;11.20;99.90;;;;;;5094423;28;20181;-73
2023/01/11 05:14:09;;;;;;;1.27;0.60;;;11.10;99.90;;;;;;5104899;28;20422;-74
2023/01/11 05:16:35;;;;;;;1.00;0.50;;;11.10;99.90;;;;;;5093498;28;20441;-73
2023/01/11 05:19:02;;;;;;;1.00;0.60;;;11.10;99.90;;;;;;5093476;28;20703;-73
2023/01/11 05:21:33;;;;;;;1.57;0.63;;;11.10;99.90;;;;;;5091764;28;20173;-73
2023/01/11 05:24:01;;;;;;;1.00;0.50;;;11.20;99.90;;;;;;5107438;28;20407;-73
2023/01/11 05:26:30;;;;;;;1.23;0.60;;;11.20;99.90;;;;;;5093416;28;20431;-73
2023/01/11 05:28:58;;;;;;;1.10;0.60;;;11.20;99.90;;;;;;5093680;28;20415;-73
2023/01/11 05:31:24;;;;;;;1.00;0.50;;;11.20;99.90;;;;;;5093597;28;20396;-73
2023/01/11 05:33:49;;;;;;;1.10;0.57;;;11.20;99.90;;;;;;5093470;28;20438;-73
2023/01/11 05:36:20;;;;;;;1.00;0.50;;;11.20;99.90;;;;;;5084538;28;20460;-74
2023/01/11 05:38:48;;;;;;;1.00;0.50;;;11.20;99.90;;;;;;5073025;28;20174;-73
2023/01/11 05:41:14;;;;;;;1.20;0.50;;;11.20;99.90;;;;;;5073110;28;20483;-74
2023/01/11 05:46:26;;;;;;;1.00;0.50;;;11.10;99.90;;;;;;5073080;28;20459;-73
2023/01/11 05:48:54;;;;;;;2.70;0.90;;;11.20;99.90;;;;;;5086463;28;20447;-73
2023/01/11 05:51:20;;;;;;;1.00;0.50;;;11.10;99.90;;;;;;5091927;28;20222;-73
2023/01/11 05:53:46;;;;;;;1.00;0.60;;;11.10;99.90;;;;;;5093110;28;20744;-73
2023/01/11 05:56:11;;;;;;;1.00;0.50;;;11.10;99.90;;;;;;5091838;28;20422;-73
2023/01/11 05:58:37;;;;;;;1.00;0.50;;;11.20;99.90;;;;;;5072719;28;20162;-73
2023/01/11 06:01:02;;;;;;;1.00;0.50;;;11.20;99.90;;;;;;5072728;28;20190;-73
2023/01/11 06:03:28;;;;;;;1.73;0.83;;;11.20;99.90;;;;;;5072628;28;20181;-73
2023/01/11 06:05:54;;;;;;;2.00;1.00;;;11.10;99.90;;;;;;5071023;28;20253;-73
2023/01/11 06:08:20;;;;;;;1.10;0.60;;;11.10;99.90;;;;;;5071332;28;20177;-73
2023/01/11 06:10:55;;;;;;;1.10;0.60;;;11.10;99.90;;;;;;5072489;28;20257;-73
2023/01/11 06:13:25;;;;;;;1.00;0.50;;;11.10;99.90;;;;;;5072811;28;20411;-73
2023/01/11 06:16:01;;;;;;;1.10;0.80;;;11.10;99.90;;;;;;5081383;28;20423;-73
2023/01/11 06:18:33;;;;;;;1.00;0.60;;;11.20;99.90;;;;;;5087102;28;20407;-73
2023/01/11 06:21:02;;;;;;;1.00;0.60;;;11.10;99.90;;;;;;5092633;28;20439;-73
2023/01/11 06:23:29;;;;;;;1.00;0.60;;;11.10;99.90;;;;;;5092624;28;20471;-73
2023/01/11 06:25:55;;;;;;;2.90;0.60;;;11.10;99.90;;;;;;5091658;28;20483;-73
2023/01/11 06:28:22;;;;;;;1.00;0.60;;;11.10;99.90;;;;;;5092650;28;20404;-73
2023/01/11 06:30:52;;;;;;;1.70;0.80;;;11.10;99.90;;;;;;5092224;28;20412;-73
2023/01/11 06:33:17;;;;;;;1.50;0.87;;;11.20;99.90;;;;;;5092478;28;20412;-73
2023/01/11 06:35:43;;;;;;;1.57;0.60;;;11.20;99.90;;;;;;5087877;28;20416;-73
2023/01/11 06:38:12;;;;;;;1.17;0.80;;;11.20;99.90;;;;;;5072848;28;20206;-73
2023/01/11 06:40:39;;;;;;;1.13;0.60;;;11.30;99.90;;;;;;5072213;28;20217;-73
2023/01/11 06:43:06;;;;;;;1.13;0.80;;;11.20;99.90;;;;;;5072099;28;20408;-74
2023/01/11 06:45:32;;;;;;;1.20;0.70;;;11.20;99.90;;;;;;5071915;28;20774;-73
2023/01/11 06:47:58;;;;;;;1.27;0.67;;;11.30;99.90;;;;;;5074650;28;20444;-73
2023/01/11 06:50:24;;;;;;;1.50;0.93;;;11.30;99.90;;;;;;5092251;28;20502;-73
2023/01/11 06:52:57;;;;;;;1.00;0.60;;;11.30;99.90;;;;;;5092382;28;20925;-73
2023/01/11 06:55:25;;;;;;;1.07;0.63;;;11.30;99.90;;;;;;5091885;28;20396;-73
2023/01/11 06:57:50;;;;;;;1.47;0.60;;;11.40;99.90;;;;;;5091954;28;20431;-73
2023/01/11 07:00:17;;;;;;;1.20;0.60;;;11.40;99.90;;;;;;5086795;28;20567;-73
2023/01/11 07:02:43;;;;;;;1.20;0.60;;;11.30;99.90;;;;;;5071916;28;20166;-73
2023/01/11 07:05:09;;;;;;;1.10;0.67;;;11.30;99.90;;;;;;5071697;28;20409;-73
2023/01/11 07:07:35;;;;;;;1.00;0.50;;;11.30;99.90;;;;;;5071809;28;20424;-73
2023/01/11 07:10:01;;;;;;;3.17;1.23;;;11.30;99.90;;;;;;5071772;28;20411;-73
2023/01/11 07:12:27;;;;;;;1.00;0.60;;;11.40;99.90;;;;;;5072457;28;20412;-73
2023/01/11 07:14:52;;;;;;;1.00;0.60;;;11.40;99.90;;;;;;5071606;28;20173;-73
2023/01/11 07:17:18;;;;;;;1.10;0.60;;;11.40;99.90;;;;;;5071393;28;20280;-73
2023/01/11 07:19:43;;;;;;;2.47;0.70;;;11.40;99.90;;;;;;5071614;28;20190;-73
2023/01/11 07:22:09;;;;;;;1.10;0.67;;;11.50;99.90;;;;;;5071651;28;20250;-73
2023/01/11 07:24:34;;;;;;;1.00;0.60;;;11.40;99.90;;;;;;5071982;28;20664;-73
2023/01/11 07:27:01;;;;;;;1.00;0.50;;;11.30;99.90;;;;;;5076685;28;20196;-73
2023/01/11 07:29:27;;;;;;;1.10;0.60;;;11.30;99.90;;;;;;5099460;28;20235;-73
2023/01/11 07:31:53;;;;;;;3.30;1.77;;;11.30;99.90;;;;;;5112201;28;20410;-72
2023/01/11 07:34:18;;;;;;;1.00;0.50;;;11.30;99.90;;;;;;5111940;28;20418;-73
2023/01/11 07:36:44;;;;;;;1.40;0.60;;;11.40;99.90;;;;;;5102507;28;20272;-73
2023/01/11 07:39:09;;;;;;;1.00;0.60;;;11.40;99.90;;;;;;5071882;28;20193;-73
2023/01/11 07:44:20;;;;;;;1.10;0.70;;;11.50;99.90;;;;;;5094739;28;20572;-73
2023/01/11 07:46:45;;;;;;;1.10;0.50;;;11.50;99.90;;;;;;5095467;28;20427;-73
2023/01/11 07:49:11;;;;;;;2.43;0.80;;;11.50;99.90;;;;;;5095665;28;20241;-73
2023/01/11 07:51:36;;;;;;;1.30;0.60;;;11.50;99.90;;;;;;5095225;28;20200;-73
2023/01/11 07:54:02;;;;;;;1.00;0.60;;;11.50;99.90;;;;;;5095514;28;20208;-73
2023/01/11 07:56:29;;;;;;;1.00;0.60;;;11.60;99.90;;;;;;5095270;28;20209;-73
2023/01/11 07:58:55;;;;;;;1.37;0.70;;;11.50;99.90;;;;;;5095333;28;20415;-73
2023/01/11 08:01:22;;;;;;;1.00;0.50;;;11.60;99.90;;;;;;5094016;28;20411;-73
2023/01/11 08:03:47;;;;;;;1.20;0.57;;;11.50;99.90;;;;;;5092405;28;20506;-73
2023/01/11 08:06:15;;;;;;;1.10;0.70;;;11.50;99.90;;;;;;5073409;28;20519;-73
2023/01/11 08:08:42;;;;;;;1.10;0.60;;;11.40;99.90;;;;;;5074888;28;20249;-73
2023/01/11 08:16:36;;;;;;;1.10;0.70;;;11.40;99.90;;;;;;5074647;28;20411;-73
2023/01/11 08:19:01;;;;;;;1.27;0.67;;;11.40;99.90;;;;;;5074450;28;20400;-73
2023/01/11 08:21:27;;;;;;;1.10;0.60;;;11.40;99.90;;;;;;5074676;28;20163;-73
2023/01/11 08:23:54;;;;;;;1.00;0.60;;;11.40;99.90;;;;;;5073343;28;20177;-73
2023/01/11 08:26:21;;;;;;;1.10;0.67;;;11.40;99.90;;;;;;5082720;28;20443;-73
2023/01/11 08:28:47;;;;;;;1.00;0.53;;;11.40;99.90;;;;;;5094771;28;20760;-73
2023/01/11 08:31:13;;;;;;;1.70;0.70;;;11.40;99.90;;;;;;5093527;28;20421;-73
2023/01/11 08:33:38;;;;;;;2.60;0.70;;;11.40;99.90;;;;;;5094707;28;20169;-73
2023/01/11 08:36:09;;;;;;;2.27;0.83;;;11.40;99.90;;;;;;5094344;28;20166;-73
2023/01/11 08:38:35;;;;;;;1.37;0.80;;;11.40;99.90;;;;;;5086199;28;20193;-73
2023/01/11 08:41:01;;;;;;;1.10;0.67;;;11.40;99.90;;;;;;5072962;28;20463;-73
2023/01/11 08:43:30;;;;;;;1.20;0.70;;;11.40;99.90;;;;;;5074297;28;20190;-73
2023/01/11 08:45:56;;;;;;;3.17;1.00;;;11.40;99.90;;;;;;5073966;28;20432;-73
2023/01/11 08:48:21;;;;;;;1.70;0.90;;;11.40;99.90;;;;;;5106800;28;20493;-73
2023/01/11 08:50:47;;;;;;;1.53;0.90;;;11.40;99.90;;;;;;5085624;28;20180;-73
2023/01/11 08:53:12;;;;;;;3.23;0.87;;;11.50;99.90;;;;;;5093550;28;20245;-73
2023/01/11 08:55:40;;;;;;;1.20;0.90;;;11.50;99.90;;;;;;5094053;28;20192;-73
2023/01/11 08:58:06;;;;;;;2.83;1.00;;;11.50;99.90;;;;;;5094218;28;20192;-73
2023/01/11 09:00:31;;;;;;;2.10;1.13;;;11.50;99.90;;;;;;5092833;28;20451;-73
2023/01/11 09:02:59;;;;;;;1.30;0.90;;;11.60;99.90;;;;;;5093774;28;20201;-73
2023/01/11 09:05:25;;;;;;;1.60;0.80;;;11.50;99.90;;;;;;5089283;28;20190;-73
2023/01/11 09:07:53;;;;;;;1.23;0.80;;;11.50;99.90;;;;;;5072520;28;20467;-73
2023/01/11 09:10:19;;;;;;;1.40;0.70;;;11.50;99.90;;;;;;5073822;28;20163;-73
2023/01/11 09:12:45;;;;;;;4.00;2.20;;;11.50;99.90;;;;;;5072494;28;20419;-73
2023/01/11 09:15:10;;;;;;;4.77;1.23;;;11.60;99.90;;;;;;5089989;28;20339;-73
2023/01/11 09:17:36;;;;;;;1.60;1.00;;;11.60;99.90;;;;;;5093843;28;20276;-73
2023/01/11 09:20:01;;;;;;;2.90;1.53;;;11.60;99.90;;;;;;5093701;28;20189;-73
2023/01/11 09:22:27;;;;;;;2.20;1.17;;;11.60;99.90;;;;;;5093828;28;20165;-73
2023/01/11 09:24:52;;;;;;;5.70;1.70;;;11.60;99.90;;;;;;5093080;28;20204;-73
2023/01/11 09:27:18;;;;;;;1.97;1.13;;;11.60;99.90;;;;;;5093534;28;20224;-73
2023/01/11 09:29:45;;;;;;;4.23;1.63;;;11.60;99.90;;;;;;5093659;28;20194;-73
2023/01/11 09:32:10;;;;;;;2.60;1.30;;;11.60;99.90;;;;;;5093401;28;20165;-73
2023/01/11 09:34:36;;;;;;;2.90;1.40;;;11.60;99.90;;;;;;5093206;28;20411;-73
2023/01/11 09:37:05;;;;;;;2.47;1.73;;;11.70;99.90;;;;;;5078387;28;20246;-73
2023/01/11 09:39:32;;;;;;;8.73;2.00;;;11.70;99.90;;;;;;5091405;28;20193;-73
2023/01/11 09:42:04;;;;;;;1.93;1.53;;;11.80;99.90;;;;;;5093315;28;20484;-73
2023/01/11 09:44:34;;;;;;;4.07;1.50;;;11.90;99.90;;;;;;5093145;28;20894;-73
2023/01/11 09:47:14;;;;;;;6.10;2.93;;;11.90;99.90;;;;;;5092913;28;20988;-73
2023/01/11 09:49:44;;;;;;;4.67;2.50;;;11.80;99.90;;;;;;5073168;28;20399;-73
2023/01/11 09:52:20;;;;;;;8.60;2.30;;;11.90;99.90;;;;;;5072871;28;20408;-73
2023/01/11 09:54:47;;;;;;;8.23;3.50;;;11.90;99.90;;;;;;5072652;28;20782;-72
2023/01/11 09:57:39;;;;;;;4.10;1.53;;;11.90;99.90;;;;;;5072642;28;20425;-75
2023/01/11 10:00:33;;;;;;;5.47;2.10;;;11.90;99.90;;;;;;5073000;28;20517;-73
2023/01/11 10:03:26;;;;;;;5.90;2.07;;;11.90;99.90;;;;;;5053122;28;20417;-72
2023/01/11 10:06:17;;;;;;;6.87;3.00;;;12.00;99.90;;;;;;5071957;28;20901;-72
2023/01/11 10:09:02;;;;;;;4.83;2.67;;;12.00;99.90;;;;;;5088302;28;20411;-73
2023/01/11 10:12:00;;;;;;;3.97;2.10;;;11.90;99.90;;;;;;5076706;28;20423;-73
2023/01/11 10:15:06;;;;;;;7.60;3.00;;;11.90;99.90;;;;;;5080413;28;20503;-73
2023/01/11 10:17:45;;;;;;;9.30;2.90;;;11.90;99.90;;;;;;5072423;28;20929;-73
2023/01/11 10:20:34;;;;;;;8.00;2.50;;;12.00;99.90;;;;;;5072376;28;20465;-73
2023/01/11 10:23:31;;;;;;;6.20;2.90;;;12.00;99.90;;;;;;5072313;28;20397;-73
2023/01/11 10:26:01;;;;;;;7.73;1.87;;;12.00;99.90;;;;;;5072025;28;20558;-73
2023/01/11 10:28:34;;;;;;;10.00;2.53;;;12.00;99.90;;;;;;5072193;28;21111;-73
2023/01/11 10:31:25;;;;;;;9.80;2.90;;;12.00;99.90;;;;;;5072265;28;20385;-73
2023/01/11 10:40:20;;;;;;;10.33;2.20;;;12.10;99.90;;;;;;5092612;28;20455;-74
2023/01/11 10:42:51;;;;;;;9.40;2.03;;;12.20;99.90;;;;;;5091001;28;20437;-73
2023/01/11 10:45:28;;;;;;;5.87;2.87;;;12.10;99.90;;;;;;5090737;28;20460;-74
2023/01/11 10:48:27;;;;;;;11.90;3.20;;;12.20;99.90;;;;;;5083511;28;20443;-74
2023/01/11 10:51:05;;;;;;;8.47;2.60;;;12.20;99.90;;;;;;5066363;28;20470;-73
2023/01/11 10:54:01;;;;;;;9.17;3.23;;;12.10;99.90;;;;;;5071899;28;20511;-74
2023/01/11 10:56:38;;;;;;;7.07;2.00;;;12.20;99.90;;;;;;5104348;28;20435;-74
2023/01/11 10:59:35;;;;;;;3.97;1.80;;;12.30;99.90;;;;;;5104281;28;20404;-74
2023/01/11 11:02:29;;;;;;;3.00;1.77;;;12.40;99.90;;;;;;5071896;28;20415;-74
2023/01/11 11:05:12;;;;;;;6.53;2.47;;;12.70;99.90;;;;;;5071574;28;20407;-73
2023/01/11 11:07:56;;;;;;;4.20;2.10;;;13.00;99.90;;;;;;5071925;28;20435;-74
2023/01/11 11:10:28;;;;;;;5.70;2.77;;;13.10;99.90;;;;;;5071883;28;20408;-74
2023/01/11 11:13:08;;;;;;;13.13;2.37;;;13.20;99.90;;;;;;5083739;28;20811;-74
2023/01/11 11:15:49;;;;;;;7.07;2.23;;;13.20;99.90;;;;;;5091534;28;20422;-73
2023/01/11 11:18:15;;;;;;;4.43;2.00;;;13.40;99.90;;;;;;5091720;28;20415;-73
2023/01/11 11:20:42;;;;;;;5.27;1.67;;;13.40;99.90;;;;;;5096085;28;20450;-73
2023/01/11 11:23:15;;;;;;;10.63;2.10;;;13.30;99.90;;;;;;5095835;28;20191;-73
2023/01/11 11:25:50;;;;;;;9.30;2.10;;;13.20;99.90;;;;;;5075521;28;20878;-74
2023/01/11 11:28:22;;;;;;;3.93;1.63;;;13.00;99.90;;;;;;5075432;28;20446;-74
2023/01/11 11:30:52;;;;;;;3.63;1.70;;;13.10;99.90;;;;;;5075523;28;20412;-74
2023/01/11 11:33:37;;;;;;;10.80;2.00;;;13.30;99.90;;;;;;5075563;28;20765;-74
2023/01/11 11:36:04;;;;;;;5.20;1.83;;;13.40;99.90;;;;;;5082387;28;20908;-74
2023/01/11 11:38:32;;;;;;;5.57;1.93;;;13.60;99.90;;;;;;5094330;28;21083;-73
2023/01/11 11:41:15;;;;;;;6.67;1.77;;;13.50;99.90;;;;;;5095598;28;20447;-74
2023/01/11 11:43:46;;;;;;;5.50;2.23;;;13.80;99.90;;;;;;5095622;28;20396;-74
2023/01/11 11:46:15;;;;;;;7.40;2.17;;;14.30;99.90;;;;;;5093982;28;20457;-74
2023/01/11 11:48:42;;;;;;;5.13;2.10;;;15.20;99.90;;;;;;5085266;28;20426;-74
2023/01/11 11:51:20;;;;;;;4.50;2.03;;;15.80;99.90;;;;;;5074906;28;20403;-74
2023/01/11 11:53:54;;;;;;;7.33;1.97;;;17.00;99.90;;;;;;5075157;28;20739;-74
2023/01/11 11:56:30;;;;;;;4.60;2.20;;;18.30;99.90;;;;;;5074834;28;20416;-74
2023/01/11 11:58:57;;;;;;;18.63;7.33;;;19.50;99.90;;;;;;5075024;28;20901;-74
2023/01/11 12:01:27;;;;;;;5.50;2.30;;;19.10;99.90;;;;;;5089586;28;20466;-72
2023/01/11 12:03:57;;;;;;;6.43;2.27;;;18.70;99.90;;;;;;5095250;28;20404;-72
2023/01/11 12:06:27;;;;;;;4.60;1.60;;;18.50;99.90;;;;;;5093640;28;20936;-72
2023/01/11 12:08:54;;;;;;;4.33;1.50;;;18.70;99.90;;;;;;5093850;28;20478;-72
2023/01/11 12:11:33;;;;;;;2.90;1.70;;;19.20;99.90;;;;;;5095205;28;20828;-72
2023/01/11 12:14:15;;;;;;;5.20;1.80;;;19.00;99.60;;;;;;5089696;28;20491;-72
2023/01/11 12:16:42;;;;;;;5.77;2.23;;;18.80;99.90;;;;;;5074648;28;20420;-72
2023/01/11 12:19:23;;;;;;;5.50;1.60;;;18.20;99.20;;;;;;5074783;28;20933;-74
2023/01/11 12:21:50;;;;;;;13.07;1.70;;;18.20;99.90;;;;;;5074464;28;20440;-72
2023/01/11 12:24:18;;;;;;;6.33;2.50;;;17.60;99.90;;;;;;5073081;28;20766;-72
2023/01/11 12:27:14;;;;;;;3.80;2.03;;;18.10;99.90;;;;;;5074647;28;20471;-72
2023/01/11 12:30:08;;;;;;;3.87;2.07;;;18.70;99.90;;;;;;5074195;28;20483;-73
2023/01/11 12:32:53;;;;;;;6.10;2.03;;;18.60;97.50;;;;;;5083525;28;20415;-72
2023/01/11 12:35:46;;;;;;;3.63;1.90;;;18.60;93.70;;;;;;5093045;28;20412;-72
2023/01/11 12:38:34;;;;;;;12.50;2.10;;;18.90;94.80;;;;;;5087781;28;20456;-73
2023/01/11 12:41:08;;;;;;;3.30;1.60;;;19.40;92.30;;;;;;5073089;28;20458;-72
2023/01/11 12:43:37;;;;;;;7.20;2.43;;;20.00;90.40;;;;;;5073081;28;20411;-72
2023/01/11 12:46:24;;;;;;;6.03;2.40;;;20.50;82.80;;;;;;5073177;28;20554;-73
2023/01/11 12:48:55;;;;;;;3.90;1.67;;;21.00;79.00;;;;;;5073230;28;20400;-73
2023/01/11 12:51:31;;;;;;;5.67;1.70;;;22.40;83.40;;;;;;5073241;28;21137;-73
2023/01/11 12:54:14;;;;;;;5.23;1.60;;;23.90;77.10;;;;;;5071622;28;20411;-73
2023/01/11 12:57:02;;;;;;;3.20;1.90;;;25.00;66.30;;;;;;5079104;28;20435;-73
2023/01/11 12:59:52;;;;;;;7.13;2.13;;;25.60;59.30;;;;;;5092898;28;20455;-73
2023/01/11 13:02:28;;;;;;;5.93;2.13;;;25.70;56.90;;;;;;5093081;28;20403;-73
2023/01/11 13:05:15;;;;;;;4.30;2.17;;;25.80;53.80;;;;;;5091544;28;20475;-73
2023/01/11 13:08:11;;;;;;;9.30;2.70;;;26.50;54.70;;;;;;5092924;28;20423;-73
2023/01/11 13:11:09;;;;;;;5.53;1.77;;;26.40;52.40;;;;;;5072715;28;20412;-73
2023/01/11 13:13:53;;;;;;;4.73;1.90;;;26.10;50.80;;;;;;5072752;28;20401;-73
2023/01/11 13:17:00;;;;;;;9.83;2.37;;;26.20;52.90;;;;;;5072478;28;20428;-73
2023/01/11 13:19:40;;;;;;;7.20;2.23;;;26.90;52.10;;;;;;5072476;28;20404;-73
2023/01/11 13:22:14;;;;;;;4.60;2.50;;;26.40;49.90;;;;;;5090328;28;20741;-72
2023/01/11 13:24:44;;;;;;;6.60;2.13;;;25.90;49.70;;;;;;5091277;28;21196;-73
2023/01/11 13:27:16;;;;;;;6.53;2.17;;;24.20;49.90;;;;;;5092677;28;20419;-73
2023/01/11 13:29:44;;;;;;;2.43;1.10;;;24.10;52.10;;;;;;5092731;28;20905;-72
2023/01/11 13:32:17;;;;;;;12.07;2.87;;;23.10;51.90;;;;;;5092709;28;20453;-72
2023/01/11 13:35:07;;;;;;;5.20;1.63;;;22.60;53.80;;;;;;5091665;28;20453;-73
2023/01/11 13:37:46;;;;;;;2.93;1.87;;;22.20;54.40;;;;;;5055985;28;1035114;-73
2023/01/11 13:40:45;;;;;;;6.27;2.23;;;21.60;54.50;;;;;;5087581;28;20741;-73
2023/01/11 13:43:20;;;;;;;8.60;2.57;;;20.90;55.20;;;;;;5073294;28;20412;-73